sensor_id;sensor_type;location;lat;lon;timestamp;P1;durP1;ratioP1;P2;durP2;ratioP2
16634;SDS011;8431;52.458;9.998;2023-01-01T00:01:36;13.32;;;4.30;;
16634;SDS011;8431;52.458;9.998;2023-01-01T00:04:05;10.63;;;4.28;;
16634;SDS011;8431;52.458;9.998;2023-01-01T00:06:36;7.13;;;3.67;;
16634;SDS011;8431;52.458;9.998;2023-01-01T00:09:03;12.13;;;4.47;;
16634;SDS011;8431;52.458;9.998;2023-01-01T00:11:47;7.32;;;3.58;;
16634;SDS011;8431;52.458;9.998;2023-01-01T00:14:15;8.73;;;3.92;;
16634;SDS011;8431;52.458;9.998;2023-01-01T00:16:42;8.38;;;3.83;;
16634;SDS011;8431;52.458;9.998;2023-01-01T00:19:10;14.80;;;3.38;;
16634;SDS011;8431;52.458;9.998;2023-01-01T00:21:37;6.22;;;3.72;;
16634;SDS011;8431;52.458;9.998;2023-01-01T00:24:05;9.00;;;3.10;;
16634;SDS011;8431;52.458;9.998;2023-01-01T00:26:33;8.35;;;3.05;;
16634;SDS011;8431;52.458;9.998;2023-01-01T00:29:00;6.20;;;2.90;;
16634;SDS011;8431;52.458;9.998;2023-01-01T00:31:27;8.75;;;2.80;;
16634;SDS011;8431;52.458;9.998;2023-01-01T00:33:54;3.70;;;3.00;;
16634;SDS011;8431;52.458;9.998;2023-01-01T00:36:25;7.57;;;3.33;;
16634;SDS011;8431;52.458;9.998;2023-01-01T00:38:53;11.88;;;3.55;;
16634;SDS011;8431;52.458;9.998;2023-01-01T00:41:21;7.80;;;3.85;;
16634;SDS011;8431;52.458;9.998;2023-01-01T00:43:48;9.25;;;3.00;;
16634;SDS011;8431;52.458;9.998;2023-01-01T00:46:15;7.28;;;2.97;;
16634;SDS011;8431;52.458;9.998;2023-01-01T00:48:42;7.30;;;2.75;;
16634;SDS011;8431;52.458;9.998;2023-01-01T00:51:10;3.88;;;3.03;;
16634;SDS011;8431;52.458;9.998;2023-01-01T00:53:39;8.27;;;3.05;;
16634;SDS011;8431;52.458;9.998;2023-01-01T00:56:06;5.13;;;2.53;;
16634;SDS011;8431;52.458;9.998;2023-01-01T00:58:33;6.00;;;3.03;;
16634;SDS011;8431;52.458;9.998;2023-01-01T01:01:00;8.85;;;3.00;;
16634;SDS011;8431;52.458;9.998;2023-01-01T01:03:27;5.43;;;2.45;;
16634;SDS011;8431;52.458;9.998;2023-01-01T01:05:55;6.22;;;3.03;;
16634;SDS011;8431;52.458;9.998;2023-01-01T01:08:23;5.40;;;2.72;;
16634;SDS011;8431;52.458;9.998;2023-01-01T01:10:51;7.15;;;3.20;;
16634;SDS011;8431;52.458;9.998;2023-01-01T01:13:19;7.80;;;3.10;;
16634;SDS011;8431;52.458;9.998;2023-01-01T01:15:46;6.50;;;2.83;;
16634;SDS011;8431;52.458;9.998;2023-01-01T01:18:13;5.32;;;2.90;;
16634;SDS011;8431;52.458;9.998;2023-01-01T01:20:40;5.20;;;3.38;;
16634;SDS011;8431;52.458;9.998;2023-01-01T01:23:15;6.10;;;3.20;;
16634;SDS011;8431;52.458;9.998;2023-01-01T01:25:42;4.93;;;2.80;;
16634;SDS011;8431;52.458;9.998;2023-01-01T01:28:11;4.95;;;2.88;;
16634;SDS011;8431;52.458;9.998;2023-01-01T01:30:39;8.95;;;3.42;;
16634;SDS011;8431;52.458;9.998;2023-01-01T01:33:06;8.10;;;3.58;;
16634;SDS011;8431;52.458;9.998;2023-01-01T01:35:33;10.43;;;3.42;;
16634;SDS011;8431;52.458;9.998;2023-01-01T01:38:00;8.63;;;3.20;;
16634;SDS011;8431;52.458;9.998;2023-01-01T01:40:28;6.85;;;3.03;;
16634;SDS011;8431;52.458;9.998;2023-01-01T01:42:55;7.40;;;3.55;;
16634;SDS011;8431;52.458;9.998;2023-01-01T01:45:23;9.98;;;3.40;;
16634;SDS011;8431;52.458;9.998;2023-01-01T01:47:51;8.60;;;3.35;;
16634;SDS011;8431;52.458;9.998;2023-01-01T01:50:21;8.20;;;3.13;;
16634;SDS011;8431;52.458;9.998;2023-01-01T01:53:01;5.90;;;3.08;;
16634;SDS011;8431;52.458;9.998;2023-01-01T01:55:32;11.73;;;3.80;;
16634;SDS011;8431;52.458;9.998;2023-01-01T01:58:02;7.00;;;3.45;;
16634;SDS011;8431;52.458;9.998;2023-01-01T02:00:32;8.95;;;3.22;;
16634;SDS011;8431;52.458;9.998;2023-01-01T02:03:01;6.50;;;2.95;;
16634;SDS011;8431;52.458;9.998;2023-01-01T02:05:30;6.95;;;3.95;;
16634;SDS011;8431;52.458;9.998;2023-01-01T02:07:59;6.45;;;4.22;;
16634;SDS011;8431;52.458;9.998;2023-01-01T02:10:27;7.07;;;3.80;;
16634;SDS011;8431;52.458;9.998;2023-01-01T02:12:55;8.93;;;3.63;;
16634;SDS011;8431;52.458;9.998;2023-01-01T02:15:22;10.50;;;3.90;;
16634;SDS011;8431;52.458;9.998;2023-01-01T02:17:55;7.75;;;3.67;;
16634;SDS011;8431;52.458;9.998;2023-01-01T02:20:28;10.23;;;4.32;;
16634;SDS011;8431;52.458;9.998;2023-01-01T02:26:26;7.72;;;3.90;;
16634;SDS011;8431;52.458;9.998;2023-01-01T02:29:06;13.07;;;4.32;;
16634;SDS011;8431;52.458;9.998;2023-01-01T02:31:45;7.18;;;4.05;;
16634;SDS011;8431;52.458;9.998;2023-01-01T02:34:17;11.30;;;3.97;;
16634;SDS011;8431;52.458;9.998;2023-01-01T02:36:50;6.53;;;3.28;;
16634;SDS011;8431;52.458;9.998;2023-01-01T02:39:20;11.00;;;4.38;;
16634;SDS011;8431;52.458;9.998;2023-01-01T02:41:51;5.53;;;3.90;;
16634;SDS011;8431;52.458;9.998;2023-01-01T02:44:23;8.95;;;4.47;;
16634;SDS011;8431;52.458;9.998;2023-01-01T02:46:53;7.78;;;4.53;;
16634;SDS011;8431;52.458;9.998;2023-01-01T02:49:20;12.30;;;3.92;;
16634;SDS011;8431;52.458;9.998;2023-01-01T02:51:52;10.77;;;3.75;;
16634;SDS011;8431;52.458;9.998;2023-01-01T02:54:30;7.22;;;4.15;;
16634;SDS011;8431;52.458;9.998;2023-01-01T02:57:04;7.75;;;3.70;;
16634;SDS011;8431;52.458;9.998;2023-01-01T02:59:40;4.53;;;3.53;;
16634;SDS011;8431;52.458;9.998;2023-01-01T03:02:34;8.00;;;3.63;;
16634;SDS011;8431;52.458;9.998;2023-01-01T03:05:07;9.02;;;3.50;;
16634;SDS011;8431;52.458;9.998;2023-01-01T03:07:40;7.72;;;3.75;;
16634;SDS011;8431;52.458;9.998;2023-01-01T03:10:22;7.43;;;4.07;;
16634;SDS011;8431;52.458;9.998;2023-01-01T03:12:59;7.57;;;3.45;;
16634;SDS011;8431;52.458;9.998;2023-01-01T03:15:33;8.23;;;4.00;;
16634;SDS011;8431;52.458;9.998;2023-01-01T03:18:07;7.28;;;3.47;;
16634;SDS011;8431;52.458;9.998;2023-01-01T03:20:39;6.80;;;3.55;;
16634;SDS011;8431;52.458;9.998;2023-01-01T03:23:10;4.75;;;3.10;;
16634;SDS011;8431;52.458;9.998;2023-01-01T03:25:41;7.22;;;3.70;;
16634;SDS011;8431;52.458;9.998;2023-01-01T03:28:13;8.27;;;3.92;;
16634;SDS011;8431;52.458;9.998;2023-01-01T03:30:45;7.93;;;3.70;;
16634;SDS011;8431;52.458;9.998;2023-01-01T03:33:15;9.68;;;3.90;;
16634;SDS011;8431;52.458;9.998;2023-01-01T03:35:47;7.25;;;3.72;;
16634;SDS011;8431;52.458;9.998;2023-01-01T03:38:18;6.80;;;3.90;;
16634;SDS011;8431;52.458;9.998;2023-01-01T03:40:47;9.00;;;3.67;;
16634;SDS011;8431;52.458;9.998;2023-01-01T03:43:18;6.63;;;4.03;;
16634;SDS011;8431;52.458;9.998;2023-01-01T03:45:53;8.90;;;3.50;;
16634;SDS011;8431;52.458;9.998;2023-01-01T03:48:22;7.00;;;3.60;;
16634;SDS011;8431;52.458;9.998;2023-01-01T03:50:52;7.55;;;3.42;;
16634;SDS011;8431;52.458;9.998;2023-01-01T03:53:31;6.50;;;3.80;;
16634;SDS011;8431;52.458;9.998;2023-01-01T03:56:06;7.38;;;3.83;;
16634;SDS011;8431;52.458;9.998;2023-01-01T03:58:40;6.10;;;3.38;;
16634;SDS011;8431;52.458;9.998;2023-01-01T04:01:13;7.03;;;3.20;;
16634;SDS011;8431;52.458;9.998;2023-01-01T04:03:43;5.53;;;3.00;;
16634;SDS011;8431;52.458;9.998;2023-01-01T04:06:10;4.80;;;2.85;;
16634;SDS011;8431;52.458;9.998;2023-01-01T04:08:37;4.32;;;2.83;;
16634;SDS011;8431;52.458;9.998;2023-01-01T04:11:05;6.32;;;3.10;;
16634;SDS011;8431;52.458;9.998;2023-01-01T04:13:49;4.20;;;2.97;;
16634;SDS011;8431;52.458;9.998;2023-01-01T04:16:17;5.72;;;2.58;;
16634;SDS011;8431;52.458;9.998;2023-01-01T04:18:44;6.80;;;2.85;;
16634;SDS011;8431;52.458;9.998;2023-01-01T04:21:11;5.28;;;3.03;;
16634;SDS011;8431;52.458;9.998;2023-01-01T04:23:38;6.00;;;2.88;;
16634;SDS011;8431;52.458;9.998;2023-01-01T04:26:09;4.13;;;2.78;;
16634;SDS011;8431;52.458;9.998;2023-01-01T04:28:38;5.72;;;2.60;;
16634;SDS011;8431;52.458;9.998;2023-01-01T04:31:05;5.28;;;2.63;;
16634;SDS011;8431;52.458;9.998;2023-01-01T04:33:34;6.50;;;3.33;;
16634;SDS011;8431;52.458;9.998;2023-01-01T04:36:02;5.68;;;2.63;;
16634;SDS011;8431;52.458;9.998;2023-01-01T04:38:30;6.22;;;2.80;;
16634;SDS011;8431;52.458;9.998;2023-01-01T04:40:58;9.02;;;2.88;;
16634;SDS011;8431;52.458;9.998;2023-01-01T04:43:26;8.40;;;2.88;;
16634;SDS011;8431;52.458;9.998;2023-01-01T04:45:54;5.25;;;2.55;;
16634;SDS011;8431;52.458;9.998;2023-01-01T04:48:22;7.25;;;2.30;;
16634;SDS011;8431;52.458;9.998;2023-01-01T04:50:55;11.30;;;3.13;;
16634;SDS011;8431;52.458;9.998;2023-01-01T04:53:22;3.95;;;2.22;;
16634;SDS011;8431;52.458;9.998;2023-01-01T04:55:49;4.93;;;2.10;;
16634;SDS011;8431;52.458;9.998;2023-01-01T04:58:16;5.63;;;3.03;;
16634;SDS011;8431;52.458;9.998;2023-01-01T05:00:47;5.03;;;2.80;;
16634;SDS011;8431;52.458;9.998;2023-01-01T05:03:15;3.80;;;2.35;;
16634;SDS011;8431;52.458;9.998;2023-01-01T05:05:42;3.60;;;2.08;;
16634;SDS011;8431;52.458;9.998;2023-01-01T05:08:11;6.43;;;2.67;;
16634;SDS011;8431;52.458;9.998;2023-01-01T05:10:38;3.88;;;2.42;;
16634;SDS011;8431;52.458;9.998;2023-01-01T05:13:05;4.75;;;2.40;;
16634;SDS011;8431;52.458;9.998;2023-01-01T05:15:34;3.33;;;2.38;;
16634;SDS011;8431;52.458;9.998;2023-01-01T05:18:02;4.75;;;2.20;;
16634;SDS011;8431;52.458;9.998;2023-01-01T05:20:29;5.40;;;2.30;;
16634;SDS011;8431;52.458;9.998;2023-01-01T05:22:56;5.72;;;2.70;;
16634;SDS011;8431;52.458;9.998;2023-01-01T05:25:25;4.53;;;2.25;;
16634;SDS011;8431;52.458;9.998;2023-01-01T05:27:52;5.35;;;2.20;;
16634;SDS011;8431;52.458;9.998;2023-01-01T05:30:19;4.53;;;2.33;;
16634;SDS011;8431;52.458;9.998;2023-01-01T05:32:47;4.00;;;1.90;;
16634;SDS011;8431;52.458;9.998;2023-01-01T05:35:14;3.78;;;2.00;;
16634;SDS011;8431;52.458;9.998;2023-01-01T05:37:41;4.30;;;2.10;;
16634;SDS011;8431;52.458;9.998;2023-01-01T05:40:08;2.47;;;1.60;;
16634;SDS011;8431;52.458;9.998;2023-01-01T05:42:37;3.38;;;2.10;;
16634;SDS011;8431;52.458;9.998;2023-01-01T05:45:05;3.03;;;1.65;;
16634;SDS011;8431;52.458;9.998;2023-01-01T05:47:32;4.93;;;2.17;;
16634;SDS011;8431;52.458;9.998;2023-01-01T05:49:59;4.70;;;1.55;;
16634;SDS011;8431;52.458;9.998;2023-01-01T05:52:26;5.63;;;1.80;;
16634;SDS011;8431;52.458;9.998;2023-01-01T05:54:54;2.00;;;1.77;;
16634;SDS011;8431;52.458;9.998;2023-01-01T05:57:22;2.55;;;2.25;;
16634;SDS011;8431;52.458;9.998;2023-01-01T05:59:51;6.03;;;1.70;;
16634;SDS011;8431;52.458;9.998;2023-01-01T06:02:18;1.95;;;1.70;;
16634;SDS011;8431;52.458;9.998;2023-01-01T06:04:45;4.68;;;1.73;;
16634;SDS011;8431;52.458;9.998;2023-01-01T06:07:12;7.65;;;2.28;;
16634;SDS011;8431;52.458;9.998;2023-01-01T06:09:39;3.80;;;1.98;;
16634;SDS011;8431;52.458;9.998;2023-01-01T06:12:06;3.10;;;1.48;;
16634;SDS011;8431;52.458;9.998;2023-01-01T06:14:33;4.43;;;1.65;;
16634;SDS011;8431;52.458;9.998;2023-01-01T06:17:02;3.45;;;1.98;;
16634;SDS011;8431;52.458;9.998;2023-01-01T06:19:29;3.08;;;1.60;;
16634;SDS011;8431;52.458;9.998;2023-01-01T06:21:56;4.43;;;1.55;;
16634;SDS011;8431;52.458;9.998;2023-01-01T06:24:23;4.13;;;1.42;;
16634;SDS011;8431;52.458;9.998;2023-01-01T06:26:50;2.97;;;1.65;;
16634;SDS011;8431;52.458;9.998;2023-01-01T06:29:17;1.92;;;1.55;;
16634;SDS011;8431;52.458;9.998;2023-01-01T06:31:44;2.80;;;1.58;;
16634;SDS011;8431;52.458;9.998;2023-01-01T06:34:12;2.45;;;1.27;;
16634;SDS011;8431;52.458;9.998;2023-01-01T06:36:39;3.45;;;2.05;;
16634;SDS011;8431;52.458;9.998;2023-01-01T06:39:06;2.08;;;1.20;;
16634;SDS011;8431;52.458;9.998;2023-01-01T06:41:34;3.80;;;1.70;;
16634;SDS011;8431;52.458;9.998;2023-01-01T06:44:01;3.20;;;1.60;;
16634;SDS011;8431;52.458;9.998;2023-01-01T06:46:30;5.93;;;1.60;;
16634;SDS011;8431;52.458;9.998;2023-01-01T06:48:59;2.20;;;1.60;;
16634;SDS011;8431;52.458;9.998;2023-01-01T06:51:30;3.30;;;1.40;;
16634;SDS011;8431;52.458;9.998;2023-01-01T06:53:58;2.55;;;1.85;;
16634;SDS011;8431;52.458;9.998;2023-01-01T06:56:26;3.17;;;1.55;;
16634;SDS011;8431;52.458;9.998;2023-01-01T06:58:54;3.13;;;1.23;;
16634;SDS011;8431;52.458;9.998;2023-01-01T07:01:22;2.85;;;1.35;;
16634;SDS011;8431;52.458;9.998;2023-01-01T07:03:51;4.75;;;1.60;;
16634;SDS011;8431;52.458;9.998;2023-01-01T07:06:19;1.85;;;1.35;;
16634;SDS011;8431;52.458;9.998;2023-01-01T07:08:48;1.85;;;1.15;;
16634;SDS011;8431;52.458;9.998;2023-01-01T07:11:15;4.75;;;1.70;;
16634;SDS011;8431;52.458;9.998;2023-01-01T07:13:43;2.35;;;1.50;;
16634;SDS011;8431;52.458;9.998;2023-01-01T07:16:10;1.55;;;1.45;;
16634;SDS011;8431;52.458;9.998;2023-01-01T07:18:37;2.15;;;1.20;;
16634;SDS011;8431;52.458;9.998;2023-01-01T07:21:05;3.03;;;1.48;;
16634;SDS011;8431;52.458;9.998;2023-01-01T07:23:33;3.85;;;1.80;;
16634;SDS011;8431;52.458;9.998;2023-01-01T07:26:02;4.85;;;1.45;;
16634;SDS011;8431;52.458;9.998;2023-01-01T07:28:29;2.38;;;1.15;;
16634;SDS011;8431;52.458;9.998;2023-01-01T07:30:56;3.20;;;1.30;;
16634;SDS011;8431;52.458;9.998;2023-01-01T07:33:23;4.40;;;1.48;;
16634;SDS011;8431;52.458;9.998;2023-01-01T07:35:50;2.80;;;1.13;;
16634;SDS011;8431;52.458;9.998;2023-01-01T07:38:17;2.10;;;1.08;;
16634;SDS011;8431;52.458;9.998;2023-01-01T07:40:44;1.88;;;1.48;;
16634;SDS011;8431;52.458;9.998;2023-01-01T07:43:12;4.45;;;1.98;;
16634;SDS011;8431;52.458;9.998;2023-01-01T07:45:40;4.13;;;1.38;;
16634;SDS011;8431;52.458;9.998;2023-01-01T07:48:08;2.20;;;1.23;;
16634;SDS011;8431;52.458;9.998;2023-01-01T07:50:38;2.00;;;1.35;;
16634;SDS011;8431;52.458;9.998;2023-01-01T07:53:05;2.97;;;1.27;;
16634;SDS011;8431;52.458;9.998;2023-01-01T07:55:32;11.15;;;1.63;;
16634;SDS011;8431;52.458;9.998;2023-01-01T07:58:00;2.55;;;1.20;;
16634;SDS011;8431;52.458;9.998;2023-01-01T08:00:28;0.98;;;0.90;;
16634;SDS011;8431;52.458;9.998;2023-01-01T08:02:56;4.30;;;1.80;;
16634;SDS011;8431;52.458;9.998;2023-01-01T08:05:23;2.65;;;1.30;;
16634;SDS011;8431;52.458;9.998;2023-01-01T08:07:50;1.52;;;1.20;;
16634;SDS011;8431;52.458;9.998;2023-01-01T08:10:17;2.35;;;1.27;;
16634;SDS011;8431;52.458;9.998;2023-01-01T08:12:45;3.65;;;1.13;;
16634;SDS011;8431;52.458;9.998;2023-01-01T08:15:13;4.03;;;1.33;;
16634;SDS011;8431;52.458;9.998;2023-01-01T08:17:42;1.80;;;1.42;;
16634;SDS011;8431;52.458;9.998;2023-01-01T08:20:09;4.38;;;1.60;;
16634;SDS011;8431;52.458;9.998;2023-01-01T08:22:37;2.80;;;1.50;;
16634;SDS011;8431;52.458;9.998;2023-01-01T08:25:04;2.75;;;1.92;;
16634;SDS011;8431;52.458;9.998;2023-01-01T08:27:31;2.55;;;1.70;;
16634;SDS011;8431;52.458;9.998;2023-01-01T08:29:58;2.42;;;1.55;;
16634;SDS011;8431;52.458;9.998;2023-01-01T08:32:26;1.70;;;1.33;;
16634;SDS011;8431;52.458;9.998;2023-01-01T08:34:54;2.30;;;1.45;;
16634;SDS011;8431;52.458;9.998;2023-01-01T08:37:21;2.15;;;1.30;;
16634;SDS011;8431;52.458;9.998;2023-01-01T08:39:49;2.47;;;1.23;;
16634;SDS011;8431;52.458;9.998;2023-01-01T08:42:16;1.50;;;1.35;;
16634;SDS011;8431;52.458;9.998;2023-01-01T08:44:44;3.15;;;1.60;;
16634;SDS011;8431;52.458;9.998;2023-01-01T08:47:17;4.95;;;1.83;;
16634;SDS011;8431;52.458;9.998;2023-01-01T08:49:46;3.95;;;1.95;;
16634;SDS011;8431;52.458;9.998;2023-01-01T08:52:15;2.33;;;1.40;;
16634;SDS011;8431;52.458;9.998;2023-01-01T08:54:43;2.40;;;1.23;;
16634;SDS011;8431;52.458;9.998;2023-01-01T08:57:10;1.83;;;1.10;;
16634;SDS011;8431;52.458;9.998;2023-01-01T08:59:37;5.60;;;2.10;;
16634;SDS011;8431;52.458;9.998;2023-01-01T09:02:05;2.75;;;1.80;;
16634;SDS011;8431;52.458;9.998;2023-01-01T09:04:32;3.15;;;1.55;;
16634;SDS011;8431;52.458;9.998;2023-01-01T09:06:59;2.33;;;1.40;;
16634;SDS011;8431;52.458;9.998;2023-01-01T09:09:28;2.65;;;1.17;;
16634;SDS011;8431;52.458;9.998;2023-01-01T09:11:55;3.90;;;1.83;;
16634;SDS011;8431;52.458;9.998;2023-01-01T09:14:28;2.33;;;1.55;;
16634;SDS011;8431;52.458;9.998;2023-01-01T09:16:58;2.10;;;1.50;;
16634;SDS011;8431;52.458;9.998;2023-01-01T09:19:27;5.85;;;1.95;;
16634;SDS011;8431;52.458;9.998;2023-01-01T09:21:54;2.65;;;1.42;;
16634;SDS011;8431;52.458;9.998;2023-01-01T09:24:21;4.18;;;1.67;;
16634;SDS011;8431;52.458;9.998;2023-01-01T09:26:53;2.05;;;1.13;;
16634;SDS011;8431;52.458;9.998;2023-01-01T09:29:30;4.35;;;1.40;;
16634;SDS011;8431;52.458;9.998;2023-01-01T09:31:57;3.38;;;1.45;;
16634;SDS011;8431;52.458;9.998;2023-01-01T09:34:24;3.95;;;1.50;;
16634;SDS011;8431;52.458;9.998;2023-01-01T09:36:51;1.80;;;1.30;;
16634;SDS011;8431;52.458;9.998;2023-01-01T09:39:18;3.67;;;1.70;;
16634;SDS011;8431;52.458;9.998;2023-01-01T09:41:49;1.38;;;1.27;;
16634;SDS011;8431;52.458;9.998;2023-01-01T09:44:36;2.35;;;1.55;;
16634;SDS011;8431;52.458;9.998;2023-01-01T09:47:21;2.53;;;1.20;;
16634;SDS011;8431;52.458;9.998;2023-01-01T09:49:51;2.50;;;1.33;;
16634;SDS011;8431;52.458;9.998;2023-01-01T09:52:23;2.25;;;1.02;;
16634;SDS011;8431;52.458;9.998;2023-01-01T09:55:09;5.78;;;1.65;;
16634;SDS011;8431;52.458;9.998;2023-01-01T09:57:47;6.15;;;1.90;;
16634;SDS011;8431;52.458;9.998;2023-01-01T10:00:15;3.33;;;1.10;;
16634;SDS011;8431;52.458;9.998;2023-01-01T10:02:47;2.45;;;0.88;;
16634;SDS011;8431;52.458;9.998;2023-01-01T10:05:42;3.92;;;1.52;;
16634;SDS011;8431;52.458;9.998;2023-01-01T10:08:18;2.90;;;1.52;;
16634;SDS011;8431;52.458;9.998;2023-01-01T10:10:53;3.97;;;1.30;;
16634;SDS011;8431;52.458;9.998;2023-01-01T10:13:30;2.50;;;1.85;;
16634;SDS011;8431;52.458;9.998;2023-01-01T10:16:04;2.38;;;1.42;;
16634;SDS011;8431;52.458;9.998;2023-01-01T10:18:37;3.75;;;1.42;;
16634;SDS011;8431;52.458;9.998;2023-01-01T10:21:08;4.35;;;1.70;;
16634;SDS011;8431;52.458;9.998;2023-01-01T10:23:42;2.17;;;1.10;;
16634;SDS011;8431;52.458;9.998;2023-01-01T10:26:12;4.50;;;1.80;;
16634;SDS011;8431;52.458;9.998;2023-01-01T10:32:18;2.00;;;1.40;;
16634;SDS011;8431;52.458;9.998;2023-01-01T10:34:47;5.47;;;1.73;;
16634;SDS011;8431;52.458;9.998;2023-01-01T10:37:18;2.03;;;1.48;;
16634;SDS011;8431;52.458;9.998;2023-01-01T10:39:45;3.33;;;1.70;;
16634;SDS011;8431;52.458;9.998;2023-01-01T10:42:14;4.80;;;1.30;;
16634;SDS011;8431;52.458;9.998;2023-01-01T10:44:43;2.10;;;0.90;;
16634;SDS011;8431;52.458;9.998;2023-01-01T10:47:22;10.02;;;6.28;;
16634;SDS011;8431;52.458;9.998;2023-01-01T10:49:55;3.28;;;1.00;;
16634;SDS011;8431;52.458;9.998;2023-01-01T10:52:25;1.15;;;0.82;;
16634;SDS011;8431;52.458;9.998;2023-01-01T10:54:55;3.20;;;1.40;;
16634;SDS011;8431;52.458;9.998;2023-01-01T10:57:28;0.93;;;0.90;;
16634;SDS011;8431;52.458;9.998;2023-01-01T11:00:10;3.85;;;1.15;;
16634;SDS011;8431;52.458;9.998;2023-01-01T11:02:46;2.13;;;1.00;;
16634;SDS011;8431;52.458;9.998;2023-01-01T11:05:15;1.30;;;1.15;;
16634;SDS011;8431;52.458;9.998;2023-01-01T11:07:44;1.30;;;1.20;;
16634;SDS011;8431;52.458;9.998;2023-01-01T11:10:16;2.75;;;1.13;;
16634;SDS011;8431;52.458;9.998;2023-01-01T11:12:45;2.63;;;1.50;;
16634;SDS011;8431;52.458;9.998;2023-01-01T11:15:25;1.33;;;1.13;;
16634;SDS011;8431;52.458;9.998;2023-01-01T11:18:11;6.25;;;1.55;;
16634;SDS011;8431;52.458;9.998;2023-01-01T11:20:40;5.93;;;1.60;;
16634;SDS011;8431;52.458;9.998;2023-01-01T11:23:16;2.03;;;1.67;;
16634;SDS011;8431;52.458;9.998;2023-01-01T11:25:58;2.25;;;1.90;;
16634;SDS011;8431;52.458;9.998;2023-01-01T11:28:27;4.82;;;2.20;;
16634;SDS011;8431;52.458;9.998;2023-01-01T11:33:43;4.15;;;2.17;;
16634;SDS011;8431;52.458;9.998;2023-01-01T11:36:19;3.55;;;2.00;;
16634;SDS011;8431;52.458;9.998;2023-01-01T11:38:48;4.35;;;2.08;;
16634;SDS011;8431;52.458;9.998;2023-01-01T11:41:16;4.13;;;1.83;;
16634;SDS011;8431;52.458;9.998;2023-01-01T11:43:44;3.40;;;1.60;;
16634;SDS011;8431;52.458;9.998;2023-01-01T11:46:16;2.80;;;1.67;;
16634;SDS011;8431;52.458;9.998;2023-01-01T11:48:48;2.80;;;1.45;;
16634;SDS011;8431;52.458;9.998;2023-01-01T11:51:27;3.13;;;1.70;;
16634;SDS011;8431;52.458;9.998;2023-01-01T11:54:09;2.60;;;2.10;;
16634;SDS011;8431;52.458;9.998;2023-01-01T11:56:45;3.83;;;1.52;;
16634;SDS011;8431;52.458;9.998;2023-01-01T11:59:15;2.33;;;1.35;;
16634;SDS011;8431;52.458;9.998;2023-01-01T12:01:49;2.28;;;1.58;;
16634;SDS011;8431;52.458;9.998;2023-01-01T12:04:21;3.20;;;2.03;;
16634;SDS011;8431;52.458;9.998;2023-01-01T12:06:54;3.70;;;1.92;;
16634;SDS011;8431;52.458;9.998;2023-01-01T12:09:27;2.63;;;1.67;;
16634;SDS011;8431;52.458;9.998;2023-01-01T12:12:02;1.95;;;1.05;;
16634;SDS011;8431;52.458;9.998;2023-01-01T12:14:38;2.92;;;1.40;;
16634;SDS011;8431;52.458;9.998;2023-01-01T12:17:23;2.83;;;1.70;;
16634;SDS011;8431;52.458;9.998;2023-01-01T12:19:58;2.53;;;1.30;;
16634;SDS011;8431;52.458;9.998;2023-01-01T12:22:29;3.30;;;1.40;;
16634;SDS011;8431;52.458;9.998;2023-01-01T12:24:57;1.55;;;1.27;;
16634;SDS011;8431;52.458;9.998;2023-01-01T12:27:29;1.55;;;1.45;;
16634;SDS011;8431;52.458;9.998;2023-01-01T12:30:22;1.70;;;1.02;;
16634;SDS011;8431;52.458;9.998;2023-01-01T12:35:57;2.10;;;1.15;;
16634;SDS011;8431;52.458;9.998;2023-01-01T12:38:43;1.05;;;1.00;;
16634;SDS011;8431;52.458;9.998;2023-01-01T12:41:29;3.10;;;1.25;;
16634;SDS011;8431;52.458;9.998;2023-01-01T12:44:04;1.00;;;1.00;;
16634;SDS011;8431;52.458;9.998;2023-01-01T12:46:45;3.88;;;1.30;;
16634;SDS011;8431;52.458;9.998;2023-01-01T12:49:22;2.58;;;1.02;;
16634;SDS011;8431;52.458;9.998;2023-01-01T12:52:09;1.80;;;1.20;;
16634;SDS011;8431;52.458;9.998;2023-01-01T12:57:49;1.60;;;1.17;;
16634;SDS011;8431;52.458;9.998;2023-01-01T13:00:22;3.03;;;1.30;;
16634;SDS011;8431;52.458;9.998;2023-01-01T13:02:51;1.30;;;1.20;;
16634;SDS011;8431;52.458;9.998;2023-01-01T13:05:26;4.03;;;1.75;;
16634;SDS011;8431;52.458;9.998;2023-01-01T13:07:59;2.15;;;1.60;;
16634;SDS011;8431;52.458;9.998;2023-01-01T13:10:30;1.55;;;1.35;;
16634;SDS011;8431;52.458;9.998;2023-01-01T13:13:00;1.60;;;1.30;;
16634;SDS011;8431;52.458;9.998;2023-01-01T13:18:23;1.90;;;1.63;;
16634;SDS011;8431;52.458;9.998;2023-01-01T13:20:57;2.95;;;2.05;;
16634;SDS011;8431;52.458;9.998;2023-01-01T13:23:40;2.42;;;1.83;;
16634;SDS011;8431;52.458;9.998;2023-01-01T13:32:10;2.00;;;1.90;;
16634;SDS011;8431;52.458;9.998;2023-01-01T13:37:46;2.53;;;1.70;;
16634;SDS011;8431;52.458;9.998;2023-01-01T13:46:13;4.07;;;2.55;;
16634;SDS011;8431;52.458;9.998;2023-01-01T13:48:49;3.22;;;1.65;;
16634;SDS011;8431;52.458;9.998;2023-01-01T13:51:41;2.40;;;1.80;;
16634;SDS011;8431;52.458;9.998;2023-01-01T13:54:46;2.13;;;2.00;;
16634;SDS011;8431;52.458;9.998;2023-01-01T13:57:31;2.13;;;1.92;;
16634;SDS011;8431;52.458;9.998;2023-01-01T14:00:15;2.95;;;2.03;;
16634;SDS011;8431;52.458;9.998;2023-01-01T14:02:50;5.03;;;2.03;;
16634;SDS011;8431;52.458;9.998;2023-01-01T14:05:37;4.78;;;2.30;;
16634;SDS011;8431;52.458;9.998;2023-01-01T14:08:23;5.00;;;2.15;;
16634;SDS011;8431;52.458;9.998;2023-01-01T14:10:55;3.10;;;2.17;;
16634;SDS011;8431;52.458;9.998;2023-01-01T14:13:25;4.22;;;2.40;;
16634;SDS011;8431;52.458;9.998;2023-01-01T14:15:55;4.60;;;2.60;;
16634;SDS011;8431;52.458;9.998;2023-01-01T14:18:31;4.22;;;2.75;;
16634;SDS011;8431;52.458;9.998;2023-01-01T14:21:03;4.25;;;2.58;;
16634;SDS011;8431;52.458;9.998;2023-01-01T14:23:35;5.25;;;3.42;;
16634;SDS011;8431;52.458;9.998;2023-01-01T14:26:29;5.18;;;4.50;;
16634;SDS011;8431;52.458;9.998;2023-01-01T14:29:00;9.70;;;5.20;;
16634;SDS011;8431;52.458;9.998;2023-01-01T14:31:33;9.15;;;5.65;;
16634;SDS011;8431;52.458;9.998;2023-01-01T14:34:11;6.72;;;4.60;;
16634;SDS011;8431;52.458;9.998;2023-01-01T14:36:47;4.15;;;3.33;;
16634;SDS011;8431;52.458;9.998;2023-01-01T14:39:32;7.97;;;5.65;;
16634;SDS011;8431;52.458;9.998;2023-01-01T14:42:03;9.30;;;8.27;;
16634;SDS011;8431;52.458;9.998;2023-01-01T14:47:24;11.07;;;7.75;;
16634;SDS011;8431;52.458;9.998;2023-01-01T14:49:52;16.00;;;11.65;;
16634;SDS011;8431;52.458;9.998;2023-01-01T14:52:23;12.43;;;9.20;;
16634;SDS011;8431;52.458;9.998;2023-01-01T14:54:51;8.70;;;6.97;;
16634;SDS011;8431;52.458;9.998;2023-01-01T14:57:23;6.68;;;5.55;;
16634;SDS011;8431;52.458;9.998;2023-01-01T14:59:54;4.80;;;3.85;;
16634;SDS011;8431;52.458;9.998;2023-01-01T15:02:22;4.60;;;4.20;;
16634;SDS011;8431;52.458;9.998;2023-01-01T15:04:50;5.63;;;4.00;;
16634;SDS011;8431;52.458;9.998;2023-01-01T15:07:18;4.57;;;3.80;;
16634;SDS011;8431;52.458;9.998;2023-01-01T15:09:47;3.40;;;3.05;;
16634;SDS011;8431;52.458;9.998;2023-01-01T15:15:37;5.32;;;2.65;;
16634;SDS011;8431;52.458;9.998;2023-01-01T15:18:14;5.90;;;3.22;;
16634;SDS011;8431;52.458;9.998;2023-01-01T15:21:03;6.28;;;3.35;;
16634;SDS011;8431;52.458;9.998;2023-01-01T15:23:33;8.60;;;4.25;;
16634;SDS011;8431;52.458;9.998;2023-01-01T15:34:34;6.15;;;3.92;;
16634;SDS011;8431;52.458;9.998;2023-01-01T15:37:07;6.75;;;5.45;;
16634;SDS011;8431;52.458;9.998;2023-01-01T15:39:44;5.65;;;4.55;;
16634;SDS011;8431;52.458;9.998;2023-01-01T15:45:13;5.68;;;4.85;;
16634;SDS011;8431;52.458;9.998;2023-01-01T15:47:53;5.65;;;4.97;;
16634;SDS011;8431;52.458;9.998;2023-01-01T15:50:23;5.68;;;5.03;;
16634;SDS011;8431;52.458;9.998;2023-01-01T15:52:52;7.35;;;5.22;;
16634;SDS011;8431;52.458;9.998;2023-01-01T15:55:20;6.22;;;4.93;;
16634;SDS011;8431;52.458;9.998;2023-01-01T15:57:50;5.20;;;4.65;;
16634;SDS011;8431;52.458;9.998;2023-01-01T16:00:18;6.47;;;5.00;;
16634;SDS011;8431;52.458;9.998;2023-01-01T16:02:50;7.32;;;5.00;;
16634;SDS011;8431;52.458;9.998;2023-01-01T16:05:26;6.82;;;5.22;;
16634;SDS011;8431;52.458;9.998;2023-01-01T16:08:04;6.05;;;5.18;;
16634;SDS011;8431;52.458;9.998;2023-01-01T16:10:31;8.90;;;5.30;;
16634;SDS011;8431;52.458;9.998;2023-01-01T16:12:58;5.68;;;5.05;;
16634;SDS011;8431;52.458;9.998;2023-01-01T16:15:25;5.63;;;5.07;;